Terminal Aerodrome Forecast
Issued by NWS Chicago, IL

Home | Current Version | Previous Version | Graphics & Text | Print | Product List | Glossary On
Versions: 1 2 3 4 5 6 7 8 9 10 11 12 13 14 15 16 17 18 19 20 21 22 23 24 25 26 27 28 29
000
FTUS43 KLOT 242330
TAFRFD
TAF
KRFD 242330Z 2500/2524 36012KT P6SM SCT012 BKN020
     FM250400 34009KT 6SM BR BKN006 OVC012
      TEMPO 2508/2512 3SM BR OVC006
     FM251600 34012KT P6SM BKN020
     FM252000 34010KT P6SM SCT035=

USA.gov is the U.S. government's official web portal to all federal, state and local government web resources and services.